sensor_id;sensor_type;location;lat;lon;timestamp;P1;durP1;ratioP1;P2;durP2;ratioP2
35576;SDS011;21680;52.400;16.920;2023-05-07T00:00:10;10.10;;;5.20;;
35576;SDS011;21680;52.400;16.920;2023-05-07T00:02:36;10.90;;;5.10;;
35576;SDS011;21680;52.400;16.920;2023-05-07T00:05:02;9.60;;;4.50;;
35576;SDS011;21680;52.400;16.920;2023-05-07T00:07:28;9.30;;;5.50;;
35576;SDS011;21680;52.400;16.920;2023-05-07T00:09:54;9.80;;;4.90;;
35576;SDS011;21680;52.400;16.920;2023-05-07T00:12:19;9.50;;;5.10;;
35576;SDS011;21680;52.400;16.920;2023-05-07T00:14:45;9.40;;;4.70;;
35576;SDS011;21680;52.400;16.920;2023-05-07T00:17:10;10.00;;;5.50;;
35576;SDS011;21680;52.400;16.920;2023-05-07T00:19:36;11.00;;;4.90;;
35576;SDS011;21680;52.400;16.920;2023-05-07T00:22:01;7.30;;;4.50;;
35576;SDS011;21680;52.400;16.920;2023-05-07T00:24:27;7.80;;;4.60;;
35576;SDS011;21680;52.400;16.920;2023-05-07T00:26:52;10.30;;;4.60;;
35576;SDS011;21680;52.400;16.920;2023-05-07T00:29:17;10.30;;;4.90;;
35576;SDS011;21680;52.400;16.920;2023-05-07T00:31:43;10.80;;;4.70;;
35576;SDS011;21680;52.400;16.920;2023-05-07T00:34:08;9.20;;;4.50;;
35576;SDS011;21680;52.400;16.920;2023-05-07T00:36:33;8.90;;;4.80;;
35576;SDS011;21680;52.400;16.920;2023-05-07T00:38:59;8.70;;;4.60;;
35576;SDS011;21680;52.400;16.920;2023-05-07T00:41:27;6.40;;;4.20;;
35576;SDS011;21680;52.400;16.920;2023-05-07T00:43:52;14.70;;;5.70;;
35576;SDS011;21680;52.400;16.920;2023-05-07T00:46:18;9.30;;;5.20;;
35576;SDS011;21680;52.400;16.920;2023-05-07T00:48:45;10.70;;;5.30;;
35576;SDS011;21680;52.400;16.920;2023-05-07T00:51:11;11.50;;;5.10;;
35576;SDS011;21680;52.400;16.920;2023-05-07T00:53:37;9.60;;;5.60;;
35576;SDS011;21680;52.400;16.920;2023-05-07T00:56:03;10.00;;;5.00;;
35576;SDS011;21680;52.400;16.920;2023-05-07T00:58:31;10.50;;;5.80;;
35576;SDS011;21680;52.400;16.920;2023-05-07T01:00:58;11.20;;;6.00;;
35576;SDS011;21680;52.400;16.920;2023-05-07T01:03:23;11.40;;;5.70;;
35576;SDS011;21680;52.400;16.920;2023-05-07T01:05:48;10.50;;;6.00;;
35576;SDS011;21680;52.400;16.920;2023-05-07T01:08:15;10.80;;;6.00;;
35576;SDS011;21680;52.400;16.920;2023-05-07T01:10:41;11.80;;;5.80;;
35576;SDS011;21680;52.400;16.920;2023-05-07T01:13:12;11.60;;;6.50;;
35576;SDS011;21680;52.400;16.920;2023-05-07T01:15:38;11.60;;;6.80;;
35576;SDS011;21680;52.400;16.920;2023-05-07T01:18:06;12.60;;;6.80;;
35576;SDS011;21680;52.400;16.920;2023-05-07T01:20:32;11.10;;;6.30;;
35576;SDS011;21680;52.400;16.920;2023-05-07T01:22:57;13.90;;;6.60;;
35576;SDS011;21680;52.400;16.920;2023-05-07T01:25:24;17.80;;;8.10;;
35576;SDS011;21680;52.400;16.920;2023-05-07T01:27:50;16.90;;;6.90;;
35576;SDS011;21680;52.400;16.920;2023-05-07T01:30:16;15.50;;;7.40;;
35576;SDS011;21680;52.400;16.920;2023-05-07T01:32:45;12.60;;;6.50;;
35576;SDS011;21680;52.400;16.920;2023-05-07T01:35:17;11.90;;;6.70;;
35576;SDS011;21680;52.400;16.920;2023-05-07T01:37:45;11.90;;;6.70;;
35576;SDS011;21680;52.400;16.920;2023-05-07T01:40:12;11.30;;;6.80;;
35576;SDS011;21680;52.400;16.920;2023-05-07T01:42:38;12.80;;;7.00;;
35576;SDS011;21680;52.400;16.920;2023-05-07T01:45:04;14.20;;;7.40;;
35576;SDS011;21680;52.400;16.920;2023-05-07T01:47:30;13.00;;;6.60;;
35576;SDS011;21680;52.400;16.920;2023-05-07T01:49:56;10.70;;;6.00;;
35576;SDS011;21680;52.400;16.920;2023-05-07T01:52:22;12.70;;;7.10;;
35576;SDS011;21680;52.400;16.920;2023-05-07T01:54:47;14.00;;;6.60;;
35576;SDS011;21680;52.400;16.920;2023-05-07T01:57:12;11.90;;;6.80;;
35576;SDS011;21680;52.400;16.920;2023-05-07T01:59:38;16.70;;;7.20;;
35576;SDS011;21680;52.400;16.920;2023-05-07T02:02:03;13.80;;;7.10;;
35576;SDS011;21680;52.400;16.920;2023-05-07T02:04:28;14.10;;;7.20;;
35576;SDS011;21680;52.400;16.920;2023-05-07T02:06:54;19.60;;;7.80;;
35576;SDS011;21680;52.400;16.920;2023-05-07T02:09:19;19.10;;;7.80;;
35576;SDS011;21680;52.400;16.920;2023-05-07T02:11:45;14.50;;;7.70;;
35576;SDS011;21680;52.400;16.920;2023-05-07T02:14:10;16.70;;;7.80;;
35576;SDS011;21680;52.400;16.920;2023-05-07T02:16:35;15.80;;;8.60;;
35576;SDS011;21680;52.400;16.920;2023-05-07T02:19:01;11.80;;;7.10;;
35576;SDS011;21680;52.400;16.920;2023-05-07T02:21:26;13.80;;;7.20;;
35576;SDS011;21680;52.400;16.920;2023-05-07T02:23:51;14.60;;;7.80;;
35576;SDS011;21680;52.400;16.920;2023-05-07T02:26:17;16.20;;;8.00;;
35576;SDS011;21680;52.400;16.920;2023-05-07T02:28:44;15.50;;;8.80;;
35576;SDS011;21680;52.400;16.920;2023-05-07T02:31:10;14.70;;;7.20;;
35576;SDS011;21680;52.400;16.920;2023-05-07T02:33:35;14.90;;;7.60;;
35576;SDS011;21680;52.400;16.920;2023-05-07T02:36:19;15.30;;;8.10;;
35576;SDS011;21680;52.400;16.920;2023-05-07T02:38:45;16.00;;;8.10;;
35576;SDS011;21680;52.400;16.920;2023-05-07T02:41:30;14.80;;;8.70;;
35576;SDS011;21680;52.400;16.920;2023-05-07T02:43:55;16.40;;;8.30;;
35576;SDS011;21680;52.400;16.920;2023-05-07T02:46:20;12.10;;;7.40;;
35576;SDS011;21680;52.400;16.920;2023-05-07T02:48:45;15.10;;;8.20;;
35576;SDS011;21680;52.400;16.920;2023-05-07T02:51:11;17.30;;;8.30;;
35576;SDS011;21680;52.400;16.920;2023-05-07T02:53:36;18.60;;;8.00;;
35576;SDS011;21680;52.400;16.920;2023-05-07T02:56:01;18.80;;;8.70;;
35576;SDS011;21680;52.400;16.920;2023-05-07T02:58:27;13.10;;;7.60;;
35576;SDS011;21680;52.400;16.920;2023-05-07T03:00:53;17.90;;;8.40;;
35576;SDS011;21680;52.400;16.920;2023-05-07T03:03:19;24.70;;;8.40;;
35576;SDS011;21680;52.400;16.920;2023-05-07T03:05:45;20.00;;;8.10;;
35576;SDS011;21680;52.400;16.920;2023-05-07T03:08:10;18.80;;;7.90;;
35576;SDS011;21680;52.400;16.920;2023-05-07T03:10:36;15.70;;;8.00;;
35576;SDS011;21680;52.400;16.920;2023-05-07T03:13:02;15.40;;;7.50;;
35576;SDS011;21680;52.400;16.920;2023-05-07T03:15:27;14.50;;;8.00;;
35576;SDS011;21680;52.400;16.920;2023-05-07T03:17:53;17.80;;;6.80;;
35576;SDS011;21680;52.400;16.920;2023-05-07T03:20:18;16.00;;;7.50;;
35576;SDS011;21680;52.400;16.920;2023-05-07T03:22:43;14.70;;;7.60;;
35576;SDS011;21680;52.400;16.920;2023-05-07T03:25:10;12.00;;;6.40;;
35576;SDS011;21680;52.400;16.920;2023-05-07T03:27:36;12.70;;;6.80;;
35576;SDS011;21680;52.400;16.920;2023-05-07T03:30:01;15.00;;;7.10;;
35576;SDS011;21680;52.400;16.920;2023-05-07T03:32:27;11.90;;;7.00;;
35576;SDS011;21680;52.400;16.920;2023-05-07T03:34:53;19.50;;;7.50;;
35576;SDS011;21680;52.400;16.920;2023-05-07T03:37:18;14.30;;;7.30;;
35576;SDS011;21680;52.400;16.920;2023-05-07T03:39:43;12.80;;;6.70;;
35576;SDS011;21680;52.400;16.920;2023-05-07T03:42:08;13.50;;;7.60;;
35576;SDS011;21680;52.400;16.920;2023-05-07T03:44:36;16.30;;;8.10;;
35576;SDS011;21680;52.400;16.920;2023-05-07T03:47:02;14.00;;;7.10;;
35576;SDS011;21680;52.400;16.920;2023-05-07T03:49:29;11.30;;;6.70;;
35576;SDS011;21680;52.400;16.920;2023-05-07T03:51:54;14.00;;;7.50;;
35576;SDS011;21680;52.400;16.920;2023-05-07T03:54:20;12.50;;;6.20;;
35576;SDS011;21680;52.400;16.920;2023-05-07T03:56:46;16.90;;;7.30;;
35576;SDS011;21680;52.400;16.920;2023-05-07T03:59:11;15.50;;;7.10;;
35576;SDS011;21680;52.400;16.920;2023-05-07T04:01:38;13.60;;;6.60;;
35576;SDS011;21680;52.400;16.920;2023-05-07T04:04:03;17.20;;;7.30;;
35576;SDS011;21680;52.400;16.920;2023-05-07T04:06:29;11.20;;;6.10;;
35576;SDS011;21680;52.400;16.920;2023-05-07T04:08:54;12.80;;;6.60;;
35576;SDS011;21680;52.400;16.920;2023-05-07T04:11:19;14.30;;;6.90;;
35576;SDS011;21680;52.400;16.920;2023-05-07T04:13:45;14.40;;;6.30;;
35576;SDS011;21680;52.400;16.920;2023-05-07T04:16:10;11.70;;;5.80;;
35576;SDS011;21680;52.400;16.920;2023-05-07T04:18:36;14.80;;;7.30;;
35576;SDS011;21680;52.400;16.920;2023-05-07T04:21:01;15.40;;;7.20;;
35576;SDS011;21680;52.400;16.920;2023-05-07T04:23:27;12.60;;;6.80;;
35576;SDS011;21680;52.400;16.920;2023-05-07T04:25:53;10.80;;;6.70;;
35576;SDS011;21680;52.400;16.920;2023-05-07T04:28:19;12.00;;;6.70;;
35576;SDS011;21680;52.400;16.920;2023-05-07T04:30:45;12.60;;;7.20;;
35576;SDS011;21680;52.400;16.920;2023-05-07T04:33:11;13.30;;;6.90;;
35576;SDS011;21680;52.400;16.920;2023-05-07T04:35:36;13.90;;;7.50;;
35576;SDS011;21680;52.400;16.920;2023-05-07T04:38:02;17.10;;;7.10;;
35576;SDS011;21680;52.400;16.920;2023-05-07T04:40:27;11.90;;;6.90;;
35576;SDS011;21680;52.400;16.920;2023-05-07T04:42:52;13.10;;;7.60;;
35576;SDS011;21680;52.400;16.920;2023-05-07T04:45:18;16.20;;;8.00;;
35576;SDS011;21680;52.400;16.920;2023-05-07T04:47:45;13.60;;;8.10;;
35576;SDS011;21680;52.400;16.920;2023-05-07T04:50:10;17.30;;;7.90;;
35576;SDS011;21680;52.400;16.920;2023-05-07T04:52:35;15.30;;;7.30;;
35576;SDS011;21680;52.400;16.920;2023-05-07T04:55:01;16.70;;;8.10;;
35576;SDS011;21680;52.400;16.920;2023-05-07T04:57:27;17.30;;;8.00;;
35576;SDS011;21680;52.400;16.920;2023-05-07T04:59:52;14.00;;;7.50;;
35576;SDS011;21680;52.400;16.920;2023-05-07T05:02:18;12.80;;;7.30;;
35576;SDS011;21680;52.400;16.920;2023-05-07T05:04:44;15.00;;;7.30;;
35576;SDS011;21680;52.400;16.920;2023-05-07T05:07:10;16.40;;;7.90;;
35576;SDS011;21680;52.400;16.920;2023-05-07T05:09:35;15.40;;;7.70;;
35576;SDS011;21680;52.400;16.920;2023-05-07T05:12:00;13.00;;;7.30;;
35576;SDS011;21680;52.400;16.920;2023-05-07T05:14:26;11.50;;;6.40;;
35576;SDS011;21680;52.400;16.920;2023-05-07T05:16:51;8.80;;;5.20;;
35576;SDS011;21680;52.400;16.920;2023-05-07T05:19:16;11.20;;;4.70;;
35576;SDS011;21680;52.400;16.920;2023-05-07T05:21:42;12.40;;;5.40;;
35576;SDS011;21680;52.400;16.920;2023-05-07T05:24:07;12.20;;;6.20;;
35576;SDS011;21680;52.400;16.920;2023-05-07T05:26:33;12.10;;;5.90;;
35576;SDS011;21680;52.400;16.920;2023-05-07T05:28:59;9.60;;;4.90;;
35576;SDS011;21680;52.400;16.920;2023-05-07T05:31:24;8.20;;;4.50;;
35576;SDS011;21680;52.400;16.920;2023-05-07T05:33:50;6.50;;;4.30;;
35576;SDS011;21680;52.400;16.920;2023-05-07T05:36:15;11.10;;;5.40;;
35576;SDS011;21680;52.400;16.920;2023-05-07T05:38:40;10.10;;;4.70;;
35576;SDS011;21680;52.400;16.920;2023-05-07T05:41:07;10.00;;;5.30;;
35576;SDS011;21680;52.400;16.920;2023-05-07T05:43:32;6.70;;;4.50;;
35576;SDS011;21680;52.400;16.920;2023-05-07T05:45:58;8.40;;;4.90;;
35576;SDS011;21680;52.400;16.920;2023-05-07T05:48:24;7.70;;;4.80;;
35576;SDS011;21680;52.400;16.920;2023-05-07T05:50:49;7.50;;;4.00;;
35576;SDS011;21680;52.400;16.920;2023-05-07T05:53:14;8.40;;;4.40;;
35576;SDS011;21680;52.400;16.920;2023-05-07T05:55:41;7.70;;;3.80;;
35576;SDS011;21680;52.400;16.920;2023-05-07T05:58:07;6.90;;;4.10;;
35576;SDS011;21680;52.400;16.920;2023-05-07T06:00:32;10.20;;;4.00;;
35576;SDS011;21680;52.400;16.920;2023-05-07T06:02:58;6.60;;;3.40;;
35576;SDS011;21680;52.400;16.920;2023-05-07T06:05:23;9.70;;;3.50;;
35576;SDS011;21680;52.400;16.920;2023-05-07T06:07:48;6.30;;;3.20;;
35576;SDS011;21680;52.400;16.920;2023-05-07T06:10:13;5.00;;;3.00;;
35576;SDS011;21680;52.400;16.920;2023-05-07T06:12:40;4.70;;;2.90;;
35576;SDS011;21680;52.400;16.920;2023-05-07T06:15:06;9.30;;;3.40;;
35576;SDS011;21680;52.400;16.920;2023-05-07T06:17:31;7.60;;;4.70;;
35576;SDS011;21680;52.400;16.920;2023-05-07T06:19:57;7.00;;;3.90;;
35576;SDS011;21680;52.400;16.920;2023-05-07T06:22:22;7.50;;;3.70;;
35576;SDS011;21680;52.400;16.920;2023-05-07T06:24:47;6.90;;;3.90;;
35576;SDS011;21680;52.400;16.920;2023-05-07T06:27:15;9.00;;;3.10;;
35576;SDS011;21680;52.400;16.920;2023-05-07T06:29:41;10.30;;;2.70;;
35576;SDS011;21680;52.400;16.920;2023-05-07T06:32:10;5.70;;;3.00;;
35576;SDS011;21680;52.400;16.920;2023-05-07T06:34:36;7.30;;;3.50;;
35576;SDS011;21680;52.400;16.920;2023-05-07T06:37:04;7.60;;;3.10;;
35576;SDS011;21680;52.400;16.920;2023-05-07T06:39:29;4.60;;;2.90;;
35576;SDS011;21680;52.400;16.920;2023-05-07T06:41:55;5.30;;;3.40;;
35576;SDS011;21680;52.400;16.920;2023-05-07T06:44:20;6.80;;;3.40;;
35576;SDS011;21680;52.400;16.920;2023-05-07T06:46:46;4.00;;;3.00;;
35576;SDS011;21680;52.400;16.920;2023-05-07T06:49:12;3.40;;;2.70;;
35576;SDS011;21680;52.400;16.920;2023-05-07T06:51:38;4.70;;;2.70;;
35576;SDS011;21680;52.400;16.920;2023-05-07T06:54:04;5.50;;;2.60;;
35576;SDS011;21680;52.400;16.920;2023-05-07T06:56:29;3.60;;;2.50;;
35576;SDS011;21680;52.400;16.920;2023-05-07T06:58:55;10.70;;;2.60;;
35576;SDS011;21680;52.400;16.920;2023-05-07T07:01:21;3.80;;;1.80;;
35576;SDS011;21680;52.400;16.920;2023-05-07T07:03:46;3.60;;;2.10;;
35576;SDS011;21680;52.400;16.920;2023-05-07T07:06:12;5.10;;;1.80;;
35576;SDS011;21680;52.400;16.920;2023-05-07T07:08:37;4.60;;;2.10;;
35576;SDS011;21680;52.400;16.920;2023-05-07T07:11:03;6.20;;;2.10;;
35576;SDS011;21680;52.400;16.920;2023-05-07T07:13:29;4.90;;;1.60;;
35576;SDS011;21680;52.400;16.920;2023-05-07T07:15:54;7.00;;;2.10;;
35576;SDS011;21680;52.400;16.920;2023-05-07T07:18:20;3.20;;;1.50;;
35576;SDS011;21680;52.400;16.920;2023-05-07T07:20:45;3.30;;;1.40;;
35576;SDS011;21680;52.400;16.920;2023-05-07T07:23:10;6.30;;;1.60;;
35576;SDS011;21680;52.400;16.920;2023-05-07T07:25:36;3.00;;;1.80;;
35576;SDS011;21680;52.400;16.920;2023-05-07T07:28:01;3.40;;;1.50;;
35576;SDS011;21680;52.400;16.920;2023-05-07T07:30:26;7.40;;;1.50;;
35576;SDS011;21680;52.400;16.920;2023-05-07T07:32:53;1.70;;;1.30;;
35576;SDS011;21680;52.400;16.920;2023-05-07T07:35:19;3.40;;;1.90;;
35576;SDS011;21680;52.400;16.920;2023-05-07T07:37:44;3.40;;;1.40;;
35576;SDS011;21680;52.400;16.920;2023-05-07T07:40:10;4.50;;;1.60;;
35576;SDS011;21680;52.400;16.920;2023-05-07T07:42:36;1.70;;;0.90;;
35576;SDS011;21680;52.400;16.920;2023-05-07T07:45:02;5.20;;;1.20;;
35576;SDS011;21680;52.400;16.920;2023-05-07T07:47:27;4.20;;;1.60;;
35576;SDS011;21680;52.400;16.920;2023-05-07T07:49:53;2.60;;;1.40;;
35576;SDS011;21680;52.400;16.920;2023-05-07T07:52:18;1.90;;;1.50;;
35576;SDS011;21680;52.400;16.920;2023-05-07T07:54:44;2.20;;;1.30;;
35576;SDS011;21680;52.400;16.920;2023-05-07T07:57:09;5.10;;;1.70;;
35576;SDS011;21680;52.400;16.920;2023-05-07T07:59:35;2.00;;;1.50;;
35576;SDS011;21680;52.400;16.920;2023-05-07T08:02:00;3.00;;;1.60;;
35576;SDS011;21680;52.400;16.920;2023-05-07T08:04:25;5.00;;;1.40;;
35576;SDS011;21680;52.400;16.920;2023-05-07T08:06:51;4.60;;;1.80;;
35576;SDS011;21680;52.400;16.920;2023-05-07T08:09:16;5.60;;;1.30;;
35576;SDS011;21680;52.400;16.920;2023-05-07T08:11:41;3.20;;;1.70;;
35576;SDS011;21680;52.400;16.920;2023-05-07T08:14:06;12.50;;;4.60;;
35576;SDS011;21680;52.400;16.920;2023-05-07T08:16:31;11.30;;;4.80;;
35576;SDS011;21680;52.400;16.920;2023-05-07T08:18:57;5.20;;;2.50;;
35576;SDS011;21680;52.400;16.920;2023-05-07T08:21:22;2.30;;;1.70;;
35576;SDS011;21680;52.400;16.920;2023-05-07T08:23:48;1.80;;;1.60;;
35576;SDS011;21680;52.400;16.920;2023-05-07T08:26:13;7.50;;;2.30;;
35576;SDS011;21680;52.400;16.920;2023-05-07T08:28:38;3.60;;;2.00;;
35576;SDS011;21680;52.400;16.920;2023-05-07T08:31:04;3.80;;;1.70;;
35576;SDS011;21680;52.400;16.920;2023-05-07T08:33:30;2.60;;;1.70;;
35576;SDS011;21680;52.400;16.920;2023-05-07T08:35:56;5.50;;;1.70;;
35576;SDS011;21680;52.400;16.920;2023-05-07T08:38:21;5.80;;;2.10;;
35576;SDS011;21680;52.400;16.920;2023-05-07T08:40:46;4.20;;;1.60;;
35576;SDS011;21680;52.400;16.920;2023-05-07T08:43:13;4.10;;;1.50;;
35576;SDS011;21680;52.400;16.920;2023-05-07T08:45:39;1.40;;;1.10;;
35576;SDS011;21680;52.400;16.920;2023-05-07T08:48:08;1.60;;;0.90;;
35576;SDS011;21680;52.400;16.920;2023-05-07T08:50:39;3.40;;;1.10;;
35576;SDS011;21680;52.400;16.920;2023-05-07T08:53:04;2.40;;;1.60;;
35576;SDS011;21680;52.400;16.920;2023-05-07T08:55:30;4.60;;;1.30;;
35576;SDS011;21680;52.400;16.920;2023-05-07T08:57:56;4.70;;;1.70;;
35576;SDS011;21680;52.400;16.920;2023-05-07T09:00:21;3.50;;;1.50;;
35576;SDS011;21680;52.400;16.920;2023-05-07T09:02:47;6.50;;;1.70;;
35576;SDS011;21680;52.400;16.920;2023-05-07T09:05:12;1.90;;;1.50;;
35576;SDS011;21680;52.400;16.920;2023-05-07T09:07:37;1.70;;;1.50;;
35576;SDS011;21680;52.400;16.920;2023-05-07T09:10:03;4.50;;;1.20;;
35576;SDS011;21680;52.400;16.920;2023-05-07T09:12:29;4.60;;;1.30;;
35576;SDS011;21680;52.400;16.920;2023-05-07T09:14:55;3.10;;;1.40;;
35576;SDS011;21680;52.400;16.920;2023-05-07T09:17:20;4.40;;;2.80;;
35576;SDS011;21680;52.400;16.920;2023-05-07T09:19:46;3.50;;;1.90;;
35576;SDS011;21680;52.400;16.920;2023-05-07T09:22:11;3.80;;;1.80;;
35576;SDS011;21680;52.400;16.920;2023-05-07T09:24:37;6.50;;;2.30;;
35576;SDS011;21680;52.400;16.920;2023-05-07T09:27:05;3.50;;;1.70;;
35576;SDS011;21680;52.400;16.920;2023-05-07T09:29:32;2.20;;;1.70;;
35576;SDS011;21680;52.400;16.920;2023-05-07T09:32:01;2.60;;;1.50;;
35576;SDS011;21680;52.400;16.920;2023-05-07T09:34:28;2.50;;;1.50;;
35576;SDS011;21680;52.400;16.920;2023-05-07T09:36:54;3.10;;;1.70;;
35576;SDS011;21680;52.400;16.920;2023-05-07T09:39:20;3.00;;;1.80;;
35576;SDS011;21680;52.400;16.920;2023-05-07T09:41:45;2.40;;;1.60;;
35576;SDS011;21680;52.400;16.920;2023-05-07T09:44:12;5.50;;;1.80;;
35576;SDS011;21680;52.400;16.920;2023-05-07T09:46:39;2.10;;;1.30;;
35576;SDS011;21680;52.400;16.920;2023-05-07T09:49:07;2.30;;;1.50;;
35576;SDS011;21680;52.400;16.920;2023-05-07T09:51:49;2.00;;;1.10;;
35576;SDS011;21680;52.400;16.920;2023-05-07T09:54:16;3.30;;;1.30;;
35576;SDS011;21680;52.400;16.920;2023-05-07T09:56:45;8.00;;;1.70;;
35576;SDS011;21680;52.400;16.920;2023-05-07T09:59:16;2.40;;;1.70;;
35576;SDS011;21680;52.400;16.920;2023-05-07T10:01:43;1.60;;;1.30;;
35576;SDS011;21680;52.400;16.920;2023-05-07T10:04:10;4.30;;;1.80;;
35576;SDS011;21680;52.400;16.920;2023-05-07T10:06:36;2.40;;;1.70;;
35576;SDS011;21680;52.400;16.920;2023-05-07T10:09:05;4.10;;;2.30;;
35576;SDS011;21680;52.400;16.920;2023-05-07T10:11:32;2.50;;;1.70;;
35576;SDS011;21680;52.400;16.920;2023-05-07T10:13:59;3.30;;;1.60;;
35576;SDS011;21680;52.400;16.920;2023-05-07T10:16:27;1.70;;;1.40;;
35576;SDS011;21680;52.400;16.920;2023-05-07T10:18:54;7.10;;;2.60;;
35576;SDS011;21680;52.400;16.920;2023-05-07T10:21:21;2.50;;;1.40;;
35576;SDS011;21680;52.400;16.920;2023-05-07T10:23:54;2.50;;;1.40;;
35576;SDS011;21680;52.400;16.920;2023-05-07T10:26:31;2.60;;;1.60;;
35576;SDS011;21680;52.400;16.920;2023-05-07T10:29:07;5.00;;;1.70;;
35576;SDS011;21680;52.400;16.920;2023-05-07T10:34:34;3.10;;;1.60;;
35576;SDS011;21680;52.400;16.920;2023-05-07T10:37:06;4.20;;;2.00;;
35576;SDS011;21680;52.400;16.920;2023-05-07T10:39:34;2.70;;;1.60;;
35576;SDS011;21680;52.400;16.920;2023-05-07T10:42:09;3.70;;;1.50;;
35576;SDS011;21680;52.400;16.920;2023-05-07T10:44:38;2.30;;;1.10;;
35576;SDS011;21680;52.400;16.920;2023-05-07T10:47:05;3.40;;;1.60;;
35576;SDS011;21680;52.400;16.920;2023-05-07T10:49:33;5.60;;;1.70;;
35576;SDS011;21680;52.400;16.920;2023-05-07T10:52:20;5.90;;;1.60;;
35576;SDS011;21680;52.400;16.920;2023-05-07T10:55:18;3.00;;;1.60;;
35576;SDS011;21680;52.400;16.920;2023-05-07T10:57:42;3.40;;;1.60;;
35576;SDS011;21680;52.400;16.920;2023-05-07T11:05:23;2.80;;;1.50;;
35576;SDS011;21680;52.400;16.920;2023-05-07T11:07:55;3.00;;;1.50;;
35576;SDS011;21680;52.400;16.920;2023-05-07T11:10:21;1.90;;;1.10;;
35576;SDS011;21680;52.400;16.920;2023-05-07T11:12:47;1.40;;;0.80;;
35576;SDS011;21680;52.400;16.920;2023-05-07T11:15:15;3.90;;;1.40;;
35576;SDS011;21680;52.400;16.920;2023-05-07T11:17:59;4.00;;;1.30;;
35576;SDS011;21680;52.400;16.920;2023-05-07T11:26:09;5.50;;;1.40;;
35576;SDS011;21680;52.400;16.920;2023-05-07T11:28:39;2.50;;;1.40;;
35576;SDS011;21680;52.400;16.920;2023-05-07T11:31:08;1.40;;;0.80;;
35576;SDS011;21680;52.400;16.920;2023-05-07T11:33:57;2.00;;;0.90;;
35576;SDS011;21680;52.400;16.920;2023-05-07T11:36:44;3.40;;;1.30;;
35576;SDS011;21680;52.400;16.920;2023-05-07T11:39:37;3.00;;;0.90;;
35576;SDS011;21680;52.400;16.920;2023-05-07T11:42:05;4.00;;;1.20;;
35576;SDS011;21680;52.400;16.920;2023-05-07T11:44:43;1.40;;;1.20;;
35576;SDS011;21680;52.400;16.920;2023-05-07T11:47:19;4.50;;;1.20;;
35576;SDS011;21680;52.400;16.920;2023-05-07T11:49:46;1.90;;;1.30;;
35576;SDS011;21680;52.400;16.920;2023-05-07T11:52:13;1.80;;;1.50;;
35576;SDS011;21680;52.400;16.920;2023-05-07T11:54:39;1.60;;;1.20;;
35576;SDS011;21680;52.400;16.920;2023-05-07T11:57:04;2.10;;;0.80;;
35576;SDS011;21680;52.400;16.920;2023-05-07T11:59:37;2.50;;;1.20;;
35576;SDS011;21680;52.400;16.920;2023-05-07T12:02:06;1.40;;;1.30;;
35576;SDS011;21680;52.400;16.920;2023-05-07T12:04:32;2.20;;;1.00;;
35576;SDS011;21680;52.400;16.920;2023-05-07T12:06:57;2.70;;;1.10;;
35576;SDS011;21680;52.400;16.920;2023-05-07T12:09:23;1.80;;;1.20;;
35576;SDS011;21680;52.400;16.920;2023-05-07T12:11:48;2.50;;;1.10;;
35576;SDS011;21680;52.400;16.920;2023-05-07T12:14:13;2.40;;;1.10;;
35576;SDS011;21680;52.400;16.920;2023-05-07T12:16:40;1.50;;;1.10;;
35576;SDS011;21680;52.400;16.920;2023-05-07T12:19:06;1.60;;;1.20;;
35576;SDS011;21680;52.400;16.920;2023-05-07T12:21:34;2.90;;;1.20;;
35576;SDS011;21680;52.400;16.920;2023-05-07T12:24:00;2.20;;;1.40;;
35576;SDS011;21680;52.400;16.920;2023-05-07T12:26:26;2.30;;;1.90;;
35576;SDS011;21680;52.400;16.920;2023-05-07T12:28:54;3.50;;;1.60;;
35576;SDS011;21680;52.400;16.920;2023-05-07T12:31:19;1.70;;;1.30;;
35576;SDS011;21680;52.400;16.920;2023-05-07T12:33:45;2.30;;;1.30;;
35576;SDS011;21680;52.400;16.920;2023-05-07T12:36:11;3.00;;;1.30;;
35576;SDS011;21680;52.400;16.920;2023-05-07T12:38:38;3.00;;;1.30;;
35576;SDS011;21680;52.400;16.920;2023-05-07T12:41:06;2.80;;;1.60;;
35576;SDS011;21680;52.400;16.920;2023-05-07T12:43:32;2.00;;;1.50;;
35576;SDS011;21680;52.400;16.920;2023-05-07T12:46:06;2.30;;;1.50;;
35576;SDS011;21680;52.400;16.920;2023-05-07T12:48:32;2.40;;;1.40;;
35576;SDS011;21680;52.400;16.920;2023-05-07T12:50:59;5.70;;;1.40;;
35576;SDS011;21680;52.400;16.920;2023-05-07T12:53:26;4.70;;;1.70;;
35576;SDS011;21680;52.400;16.920;2023-05-07T12:55:53;3.50;;;1.50;;
35576;SDS011;21680;52.400;16.920;2023-05-07T12:58:27;4.90;;;3.00;;
35576;SDS011;21680;52.400;16.920;2023-05-07T13:00:58;6.00;;;1.60;;
35576;SDS011;21680;52.400;16.920;2023-05-07T13:03:26;2.00;;;1.30;;
35576;SDS011;21680;52.400;16.920;2023-05-07T13:06:03;3.10;;;1.50;;
35576;SDS011;21680;52.400;16.920;2023-05-07T13:08:34;2.40;;;1.50;;
35576;SDS011;21680;52.400;16.920;2023-05-07T13:11:06;3.80;;;1.50;;
35576;SDS011;21680;52.400;16.920;2023-05-07T13:13:33;3.50;;;1.50;;
35576;SDS011;21680;52.400;16.920;2023-05-07T13:16:00;2.70;;;1.30;;
35576;SDS011;21680;52.400;16.920;2023-05-07T13:18:29;2.00;;;1.60;;
35576;SDS011;21680;52.400;16.920;2023-05-07T13:20:55;4.40;;;1.50;;
35576;SDS011;21680;52.400;16.920;2023-05-07T13:23:20;3.40;;;1.60;;
35576;SDS011;21680;52.400;16.920;2023-05-07T13:25:46;4.10;;;1.50;;
35576;SDS011;21680;52.400;16.920;2023-05-07T13:28:11;2.20;;;1.20;;
35576;SDS011;21680;52.400;16.920;2023-05-07T13:30:37;3.00;;;1.50;;
35576;SDS011;21680;52.400;16.920;2023-05-07T13:33:02;4.20;;;1.60;;
35576;SDS011;21680;52.400;16.920;2023-05-07T13:35:28;3.70;;;1.70;;
35576;SDS011;21680;52.400;16.920;2023-05-07T13:37:53;1.90;;;1.20;;
35576;SDS011;21680;52.400;16.920;2023-05-07T13:40:20;2.80;;;1.80;;
35576;SDS011;21680;52.400;16.920;2023-05-07T13:42:46;3.10;;;1.10;;
35576;SDS011;21680;52.400;16.920;2023-05-07T13:45:11;6.20;;;1.60;;
35576;SDS011;21680;52.400;16.920;2023-05-07T13:47:39;3.50;;;1.40;;
35576;SDS011;21680;52.400;16.920;2023-05-07T13:50:05;3.00;;;1.50;;
35576;SDS011;21680;52.400;16.920;2023-05-07T13:52:33;4.10;;;1.80;;
35576;SDS011;21680;52.400;16.920;2023-05-07T13:54:58;3.10;;;1.70;;
35576;SDS011;21680;52.400;16.920;2023-05-07T13:57:24;4.00;;;1.70;;
35576;SDS011;21680;52.400;16.920;2023-05-07T13:59:49;4.40;;;1.70;;
35576;SDS011;21680;52.400;16.920;2023-05-07T14:02:14;4.80;;;1.60;;
35576;SDS011;21680;52.400;16.920;2023-05-07T14:04:40;3.50;;;1.90;;
35576;SDS011;21680;52.400;16.920;2023-05-07T14:07:06;3.70;;;2.10;;
35576;SDS011;21680;52.400;16.920;2023-05-07T14:09:31;3.70;;;1.40;;
35576;SDS011;21680;52.400;16.920;2023-05-07T14:11:56;3.40;;;1.70;;
35576;SDS011;21680;52.400;16.920;2023-05-07T14:14:21;1.90;;;1.30;;
35576;SDS011;21680;52.400;16.920;2023-05-07T14:16:47;1.70;;;1.50;;
35576;SDS011;21680;52.400;16.920;2023-05-07T14:19:12;4.90;;;1.50;;
35576;SDS011;21680;52.400;16.920;2023-05-07T14:21:38;3.80;;;1.60;;
35576;SDS011;21680;52.400;16.920;2023-05-07T14:24:03;4.10;;;1.60;;
35576;SDS011;21680;52.400;16.920;2023-05-07T14:26:30;3.30;;;1.60;;
35576;SDS011;21680;52.400;16.920;2023-05-07T14:28:56;4.10;;;1.80;;
35576;SDS011;21680;52.400;16.920;2023-05-07T14:31:23;1.70;;;1.20;;
35576;SDS011;21680;52.400;16.920;2023-05-07T14:33:49;2.40;;;1.60;;
35576;SDS011;21680;52.400;16.920;2023-05-07T14:36:18;4.60;;;2.10;;
35576;SDS011;21680;52.400;16.920;2023-05-07T14:38:48;1.60;;;1.30;;
35576;SDS011;21680;52.400;16.920;2023-05-07T14:41:13;3.40;;;1.50;;